TimePST,TemperatureF,Dew PointF,Humidity,Sea Level PressureIn,VisibilityMPH,Wind Direction,Wind SpeedMPH,Gust SpeedMPH,PrecipitationIn,Events,Conditions,WindDirDegrees,DateUTC
12:52 AM,48.9,19.9,32,30.13,10.0,West,4.6,-,N/A,,Clear,260,2014-01-02 08:52:00
1:52 AM,44.1,21.0,40,30.14,10.0,Calm,Calm,-,N/A,,Clear,0,2014-01-02 09:52:00
2:52 AM,43.0,21.9,43,30.14,10.0,WNW,4.6,-,N/A,,Clear,290,2014-01-02 10:52:00
3:52 AM,44.1,21.9,42,30.14,10.0,NNW,4.6,-,N/A,,Clear,330,2014-01-02 11:52:00
4:52 AM,42.1,21.9,45,30.14,10.0,Calm,Calm,-,N/A,,Clear,0,2014-01-02 12:52:00
5:52 AM,44.1,21.9,42,30.14,10.0,South,3.5,-,N/A,,Clear,190,2014-01-02 13:52:00
6:52 AM,44.1,21.9,42,30.16,10.0,SE,3.5,-,N/A,,Clear,140,2014-01-02 14:52:00
7:52 AM,48.0,23.0,37,30.17,10.0,Calm,Calm,-,N/A,,Clear,0,2014-01-02 15:52:00
8:52 AM,55.0,23.0,29,30.18,10.0,WSW,3.5,-,N/A,,Clear,240,2014-01-02 16:52:00
9:52 AM,59.0,23.0,25,30.18,10.0,Calm,Calm,-,N/A,,Clear,0,2014-01-02 17:52:00
10:52 AM,63.0,24.1,23,30.15,10.0,Calm,Calm,-,N/A,,Clear,0,2014-01-02 18:52:00
11:52 AM,66.9,27.0,22,30.11,10.0,Calm,Calm,-,N/A,,Clear,0,2014-01-02 19:52:00
12:52 PM,70.0,26.1,19,30.08,10.0,Variable,3.5,-,N/A,,Clear,0,2014-01-02 20:52:00
1:52 PM,71.1,24.1,17,30.06,10.0,SW,3.5,-,N/A,,Clear,230,2014-01-02 21:52:00
2:52 PM,73.0,24.1,16,30.04,10.0,Calm,Calm,-,N/A,,Clear,0,2014-01-02 22:52:00
3:52 PM,72.0,30.0,21,30.04,10.0,Calm,Calm,-,N/A,,Clear,0,2014-01-02 23:52:00
4:52 PM,66.9,32.0,27,30.04,10.0,Calm,Calm,-,N/A,,Clear,0,2014-01-03 00:52:00
5:52 PM,62.1,30.0,30,30.04,10.0,North,4.6,-,N/A,,Clear,350,2014-01-03 01:52:00
6:52 PM,60.1,24.1,25,30.04,10.0,NNW,11.5,-,N/A,,Clear,340,2014-01-03 02:52:00
7:52 PM,57.0,24.1,28,30.04,10.0,NNW,3.5,-,N/A,,Clear,330,2014-01-03 03:52:00
8:52 PM,55.9,23.0,28,30.05,10.0,WNW,4.6,-,N/A,,Clear,290,2014-01-03 04:52:00
9:52 PM,53.1,24.1,32,30.05,10.0,WSW,3.5,-,N/A,,Clear,240,2014-01-03 05:52:00
10:52 PM,54.0,24.1,31,30.05,10.0,WSW,8.1,-,N/A,,Clear,250,2014-01-03 06:52:00
11:52 PM,50.0,24.1,36,30.04,10.0,West,3.5,-,N/A,,Clear,270,2014-01-03 07:52:00